createdAt,value
2022-09-27T00:00:07.869Z,85.07
2022-09-27T00:02:36.029Z,84.86
2022-09-27T00:05:02.641Z,83.33
2022-09-27T00:07:29.444Z,84.09
2022-09-27T00:09:55.950Z,84.34
2022-09-27T00:12:22.492Z,85.69
2022-09-27T00:14:48.998Z,87.05
2022-09-27T00:17:15.510Z,86.89
2022-09-27T00:19:42.146Z,86.56
2022-09-27T00:22:08.720Z,85.56
2022-09-27T00:24:35.373Z,85.18
2022-09-27T00:27:01.905Z,85.55
2022-09-27T00:29:29.000Z,85.68
2022-09-27T00:31:55.605Z,85.00
2022-09-27T00:34:25.032Z,85.15
2022-09-27T00:36:52.410Z,84.91
2022-09-27T00:39:19.381Z,84.57
2022-09-27T00:41:46.002Z,85.20
2022-09-27T00:44:33.558Z,83.80
2022-09-27T00:47:03.969Z,84.72
2022-09-27T00:49:33.047Z,86.39
2022-09-27T00:52:07.442Z,85.44
2022-09-27T00:54:34.978Z,87.01
2022-09-27T00:57:02.412Z,87.50
2022-09-27T00:59:51.266Z,86.61
2022-09-27T01:02:18.570Z,86.51
2022-09-27T01:04:45.972Z,87.15
2022-09-27T01:07:12.484Z,88.48
2022-09-27T01:09:39.194Z,86.85
2022-09-27T01:12:34.691Z,86.50
2022-09-27T01:15:07.164Z,86.90
2022-09-27T01:18:02.137Z,86.08
2022-09-27T01:20:37.616Z,87.07
2022-09-27T01:23:26.446Z,85.15
2022-09-27T01:26:14.613Z,85.38
2022-09-27T01:29:03.322Z,85.94
2022-09-27T01:31:42.855Z,86.07
2022-09-27T01:34:46.949Z,85.11
2022-09-27T01:37:22.535Z,84.11
2022-09-27T01:39:54.495Z,83.62
2022-09-27T01:42:27.678Z,85.39
2022-09-27T01:45:06.293Z,85.56
2022-09-27T01:47:42.324Z,84.05
2022-09-27T01:50:14.034Z,84.55
2022-09-27T01:52:44.557Z,83.40
2022-09-27T01:55:14.681Z,83.81
2022-09-27T01:57:44.207Z,82.56
2022-09-27T02:00:12.646Z,83.35
2022-09-27T02:02:52.684Z,82.60
2022-09-27T02:05:20.917Z,81.33
2022-09-27T02:07:56.511Z,83.11
2022-09-27T02:10:27.237Z,83.96
2022-09-27T02:13:24.345Z,84.59
2022-09-27T02:16:10.089Z,84.79
2022-09-27T02:18:52.467Z,83.75
2022-09-27T02:21:20.869Z,83.60
2022-09-27T02:23:51.142Z,84.51
2022-09-27T02:26:22.578Z,83.85
2022-09-27T02:29:06.040Z,85.99
2022-09-27T02:31:33.120Z,84.26
2022-09-27T02:34:03.802Z,85.78
2022-09-27T02:36:30.875Z,85.15
2022-09-27T02:38:57.502Z,83.37
2022-09-27T02:41:24.132Z,83.82
2022-09-27T02:43:55.745Z,83.43
2022-09-27T02:46:31.659Z,81.80
2022-09-27T02:49:32.189Z,80.68
2022-09-27T02:52:36.239Z,79.87
2022-09-27T02:55:11.837Z,81.08
2022-09-27T02:57:41.371Z,82.46
2022-09-27T03:00:10.118Z,81.37
2022-09-27T03:02:53.838Z,81.17
2022-09-27T03:05:25.276Z,81.78
2022-09-27T03:07:51.885Z,81.00
2022-09-27T03:10:27.043Z,82.99
2022-09-27T03:12:54.478Z,82.90
2022-09-27T03:15:21.241Z,84.95
2022-09-27T03:17:47.805Z,84.91
2022-09-27T03:20:14.465Z,83.55
2022-09-27T03:22:41.016Z,82.43
2022-09-27T03:25:08.252Z,82.50
2022-09-27T03:27:34.963Z,82.83
2022-09-27T03:30:01.522Z,82.66
2022-09-27T03:32:28.221Z,82.08
2022-09-27T03:34:55.354Z,81.99
2022-09-27T03:37:22.401Z,82.67
2022-09-27T03:39:48.958Z,83.19
2022-09-27T03:42:15.782Z,82.74
2022-09-27T03:44:43.011Z,81.82
2022-09-27T03:47:09.647Z,81.08
2022-09-27T03:49:36.214Z,82.89
2022-09-27T03:52:02.687Z,81.95
2022-09-27T03:54:29.297Z,81.30
2022-09-27T03:56:55.865Z,81.75
2022-09-27T03:59:22.846Z,81.77
2022-09-27T04:01:49.398Z,80.73
2022-09-27T04:04:15.994Z,81.28
2022-09-27T04:06:42.457Z,81.57
2022-09-27T04:09:09.026Z,83.03
2022-09-27T04:11:35.586Z,83.94
2022-09-27T04:14:02.366Z,85.52
2022-09-27T04:16:29.504Z,85.82
2022-09-27T04:18:56.197Z,85.51
2022-09-27T04:21:22.806Z,85.58
2022-09-27T04:23:49.457Z,85.92
2022-09-27T04:26:16.311Z,86.56
2022-09-27T04:28:43.090Z,86.39
2022-09-27T04:31:09.934Z,85.69
2022-09-27T04:33:36.558Z,86.93
2022-09-27T04:36:21.724Z,87.95
2022-09-27T04:38:48.539Z,87.14
2022-09-27T04:41:15.477Z,86.79
2022-09-27T04:43:42.078Z,86.05
2022-09-27T04:46:08.917Z,85.65
2022-09-27T04:48:35.551Z,86.15
2022-09-27T04:51:02.647Z,85.98
2022-09-27T04:53:29.862Z,86.92
2022-09-27T04:55:56.627Z,87.52
2022-09-27T04:58:24.157Z,88.38
2022-09-27T05:00:55.690Z,88.09
2022-09-27T05:03:22.942Z,88.03
2022-09-27T05:05:49.476Z,87.70
2022-09-27T05:08:16.210Z,88.50
2022-09-27T05:10:43.007Z,87.42
2022-09-27T05:13:09.571Z,86.23
2022-09-27T05:15:36.374Z,85.75
2022-09-27T05:18:02.921Z,85.34
2022-09-27T05:20:29.525Z,85.01
2022-09-27T05:22:56.890Z,84.78
2022-09-27T05:25:23.485Z,85.76
2022-09-27T05:27:51.086Z,86.02
2022-09-27T05:30:17.939Z,86.54
2022-09-27T05:32:45.438Z,86.71
2022-09-27T05:35:12.166Z,87.43
2022-09-27T05:37:40.686Z,88.26
2022-09-27T05:40:22.358Z,87.66
2022-09-27T05:42:50.453Z,86.77
2022-09-27T05:45:17.477Z,85.54
2022-09-27T05:47:44.116Z,86.06
2022-09-27T05:50:10.660Z,85.27
2022-09-27T05:52:37.183Z,83.67
2022-09-27T05:55:04.181Z,83.88
2022-09-27T05:57:31.086Z,83.76
2022-09-27T05:59:57.648Z,83.34
2022-09-27T06:02:24.713Z,83.00
2022-09-27T06:04:51.295Z,83.36
2022-09-27T06:07:17.863Z,83.04
2022-09-27T06:09:44.529Z,83.29
2022-09-27T06:12:11.838Z,83.97
2022-09-27T06:14:38.398Z,84.40
2022-09-27T06:17:05.141Z,85.12
2022-09-27T06:19:31.910Z,83.87
2022-09-27T06:21:58.440Z,83.72
2022-09-27T06:24:24.931Z,82.79
2022-09-27T06:26:51.514Z,83.75
2022-09-27T06:29:17.997Z,82.51
2022-09-27T06:31:44.544Z,81.91
2022-09-27T06:34:11.037Z,82.75
2022-09-27T06:36:37.697Z,82.13
2022-09-27T06:39:04.436Z,80.92
2022-09-27T06:41:31.368Z,80.37
2022-09-27T06:43:57.983Z,79.08
2022-09-27T06:46:24.614Z,78.59
2022-09-27T06:48:51.184Z,79.10
2022-09-27T06:51:17.742Z,78.43
2022-09-27T06:53:44.348Z,76.29
2022-09-27T06:56:10.889Z,75.56
2022-09-27T06:58:56.272Z,75.90
2022-09-27T07:01:27.901Z,73.73
2022-09-27T07:03:54.952Z,73.00
2022-09-27T07:06:25.588Z,74.81
2022-09-27T07:08:53.509Z,73.62
2022-09-27T07:11:20.506Z,74.36
2022-09-27T07:13:47.051Z,73.08
2022-09-27T07:16:14.656Z,71.92
2022-09-27T07:18:42.163Z,71.80
2022-09-27T07:21:08.866Z,73.68
2022-09-27T07:23:37.012Z,73.88
2022-09-27T07:26:05.246Z,75.38
2022-09-27T07:28:31.976Z,75.85
2022-09-27T07:30:58.519Z,76.48
2022-09-27T07:33:25.450Z,77.73
2022-09-27T07:35:52.624Z,77.12
2022-09-27T07:38:19.937Z,79.21
2022-09-27T07:40:46.678Z,78.33
2022-09-27T07:43:13.483Z,78.21
2022-09-27T07:45:40.377Z,77.18
2022-09-27T07:48:08.181Z,75.39
2022-09-27T07:50:35.340Z,75.89
2022-09-27T07:53:01.905Z,76.47
2022-09-27T07:55:28.480Z,77.33
2022-09-27T07:58:09.241Z,77.45
2022-09-27T08:00:37.001Z,78.13
2022-09-27T08:03:17.544Z,76.95
2022-09-27T08:05:47.155Z,78.36
2022-09-27T08:08:15.101Z,79.07
2022-09-27T08:10:44.578Z,78.23
2022-09-27T08:13:11.647Z,80.46
2022-09-27T08:15:39.094Z,80.47
2022-09-27T08:18:06.549Z,79.26
2022-09-27T08:20:33.164Z,77.32
2022-09-27T08:22:59.661Z,76.15
2022-09-27T08:25:28.372Z,74.90
2022-09-27T08:28:00.036Z,77.06
2022-09-27T08:30:27.254Z,78.38
2022-09-27T08:32:58.101Z,76.72
2022-09-27T08:35:25.078Z,75.73
2022-09-27T08:37:56.284Z,75.28
2022-09-27T08:40:24.822Z,74.35
2022-09-27T08:42:58.637Z,70.20
2022-09-27T08:45:30.911Z,69.68
2022-09-27T08:48:01.837Z,68.89
2022-09-27T08:50:29.543Z,66.12
2022-09-27T08:53:14.263Z,65.52
2022-09-27T08:55:48.013Z,66.90
2022-09-27T08:58:26.515Z,67.57
2022-09-27T09:00:56.122Z,70.97
2022-09-27T09:03:26.127Z,71.87
2022-09-27T09:06:19.699Z,69.75
2022-09-27T09:09:05.019Z,67.19
2022-09-27T09:12:12.380Z,66.53
2022-09-27T09:14:45.191Z,67.79
2022-09-27T09:17:45.847Z,65.43
2022-09-27T09:20:40.373Z,63.50
2022-09-27T09:23:22.219Z,59.57
2022-09-27T09:26:17.180Z,59.47
2022-09-27T09:28:46.864Z,59.22
2022-09-27T09:31:29.068Z,60.27
2022-09-27T09:33:59.598Z,59.17
2022-09-27T09:36:32.812Z,61.37
2022-09-27T09:39:03.958Z,60.98
2022-09-27T09:41:41.798Z,59.99
2022-09-27T09:44:23.853Z,62.32
2022-09-27T09:46:54.022Z,63.62
2022-09-27T09:49:30.968Z,65.64
2022-09-27T09:52:07.956Z,66.28
2022-09-27T09:54:38.816Z,64.89
2022-09-27T09:57:11.223Z,63.88
2022-09-27T09:59:44.082Z,62.52
2022-09-27T10:02:20.187Z,65.09
2022-09-27T10:04:46.708Z,65.30
2022-09-27T10:07:26.058Z,65.42
2022-09-27T10:09:55.965Z,65.84
2022-09-27T10:12:22.743Z,65.39
2022-09-27T10:14:50.700Z,64.12
2022-09-27T10:17:21.432Z,59.80
2022-09-27T10:19:54.818Z,57.34
2022-09-27T10:22:40.293Z,56.46
2022-09-27T10:25:08.666Z,54.83
2022-09-27T10:27:45.870Z,55.76
2022-09-27T10:30:29.229Z,56.13
2022-09-27T10:33:00.243Z,59.01
2022-09-27T10:35:29.745Z,58.52
2022-09-27T10:38:18.799Z,56.90
2022-09-27T10:40:45.808Z,57.56
2022-09-27T10:43:31.751Z,59.60
2022-09-27T10:46:20.081Z,61.35
2022-09-27T10:48:46.666Z,60.46
2022-09-27T10:51:26.363Z,60.96
2022-09-27T10:53:53.727Z,60.85
2022-09-27T10:56:35.005Z,60.95
2022-09-27T10:59:04.015Z,62.84
2022-09-27T11:01:45.367Z,62.80
2022-09-27T11:04:36.441Z,62.70
2022-09-27T11:07:20.287Z,60.02
2022-09-27T11:09:54.587Z,48.99
2022-09-27T11:12:23.011Z,48.67
2022-09-27T11:14:54.615Z,52.83
2022-09-27T11:17:26.582Z,57.72
2022-09-27T11:19:56.771Z,58.72
2022-09-27T11:22:42.627Z,60.14
2022-09-27T11:25:20.339Z,56.38
2022-09-27T11:28:01.736Z,58.92
2022-09-27T11:30:57.578Z,58.68
2022-09-27T11:33:54.132Z,60.01
2022-09-27T11:36:43.888Z,59.55
2022-09-27T11:39:25.575Z,61.26
2022-09-27T11:42:00.714Z,62.31
2022-09-27T11:44:27.246Z,63.16
2022-09-27T11:47:32.503Z,63.39
2022-09-27T11:49:59.142Z,64.65
2022-09-27T11:52:31.825Z,65.33
2022-09-27T11:55:20.572Z,62.80
2022-09-27T11:57:56.889Z,60.19
2022-09-27T12:00:25.642Z,58.71
2022-09-27T12:03:21.023Z,57.80
2022-09-27T12:05:58.187Z,58.98
2022-09-27T12:08:33.259Z,56.80
2022-09-27T12:11:09.255Z,55.85
2022-09-27T12:13:48.870Z,56.05
2022-09-27T12:16:17.549Z,56.35
2022-09-27T12:18:47.995Z,54.99
2022-09-27T12:21:18.341Z,54.38
2022-09-27T12:23:54.269Z,53.52
2022-09-27T12:26:25.719Z,53.55
2022-09-27T12:28:55.297Z,55.66
2022-09-27T12:31:30.261Z,56.98
2022-09-27T12:34:20.624Z,66.17
2022-09-27T12:37:21.607Z,68.87
2022-09-27T12:39:53.349Z,68.07
2022-09-27T12:42:20.951Z,68.92
2022-09-27T12:44:51.798Z,68.96
2022-09-27T12:47:45.084Z,69.06
2022-09-27T12:50:39.827Z,68.52
2022-09-27T12:55:57.855Z,66.40
2022-09-27T12:58:29.807Z,62.56
2022-09-27T13:01:24.604Z,63.94
2022-09-27T13:04:23.305Z,63.25
2022-09-27T13:07:03.637Z,62.90
2022-09-27T13:09:43.059Z,60.69
2022-09-27T13:12:19.397Z,59.44
2022-09-27T13:15:06.589Z,59.01
2022-09-27T13:17:34.172Z,58.54
2022-09-27T13:20:37.007Z,60.26
2022-09-27T13:23:24.110Z,59.56
2022-09-27T13:26:03.689Z,59.88
2022-09-27T13:28:33.098Z,61.14
2022-09-27T13:31:01.768Z,62.38
2022-09-27T13:33:52.526Z,62.65
2022-09-27T13:36:28.289Z,61.58
2022-09-27T13:39:11.613Z,62.19
2022-09-27T13:41:48.560Z,60.48
2022-09-27T13:44:43.103Z,60.77
2022-09-27T13:47:30.469Z,62.83
2022-09-27T13:50:05.059Z,62.41
2022-09-27T13:52:35.478Z,62.19
2022-09-27T13:55:04.521Z,62.66
2022-09-27T13:57:40.341Z,63.12
2022-09-27T14:00:11.193Z,63.05
2022-09-27T14:02:55.838Z,62.43
2022-09-27T14:05:27.798Z,60.80
2022-09-27T14:07:55.435Z,59.25
2022-09-27T14:10:23.236Z,58.98
2022-09-27T14:12:52.176Z,59.74
2022-09-27T14:15:29.868Z,58.16
2022-09-27T14:17:57.595Z,58.56
2022-09-27T14:20:33.581Z,57.62
2022-09-27T14:23:01.517Z,59.84
2022-09-27T14:25:28.364Z,61.35
2022-09-27T14:27:54.906Z,61.82
2022-09-27T14:30:24.019Z,62.48
2022-09-27T14:32:53.952Z,61.82
2022-09-27T14:35:43.076Z,61.59
2022-09-27T14:38:46.660Z,61.69
2022-09-27T14:41:07.822Z,63.54
2022-09-27T14:43:36.133Z,63.65
2022-09-27T14:46:07.375Z,64.40
2022-09-27T14:48:38.985Z,63.28
2022-09-27T14:51:20.572Z,61.70
2022-09-27T14:54:00.693Z,60.45
2022-09-27T14:56:34.289Z,59.95
2022-09-27T14:59:09.223Z,59.58
2022-09-27T15:01:38.107Z,60.39
2022-09-27T15:04:11.995Z,60.77
2022-09-27T15:06:38.841Z,61.28
2022-09-27T15:09:07.031Z,60.09
2022-09-27T15:11:34.665Z,59.72
2022-09-27T15:14:03.420Z,58.95
2022-09-27T15:16:31.231Z,58.37
2022-09-27T15:19:13.572Z,58.05
2022-09-27T15:21:40.280Z,58.58
2022-09-27T15:24:36.073Z,57.46
2022-09-27T15:27:02.885Z,58.56
2022-09-27T15:29:29.406Z,60.07
2022-09-27T15:32:07.194Z,60.32
2022-09-27T15:34:34.736Z,58.06
2022-09-27T15:37:03.772Z,57.70
2022-09-27T15:39:37.899Z,57.99
2022-09-27T15:42:10.444Z,57.15
2022-09-27T15:44:43.113Z,56.99
2022-09-27T15:47:40.139Z,58.69
2022-09-27T15:50:15.613Z,59.74
2022-09-27T15:52:47.452Z,60.04
2022-09-27T15:55:17.120Z,59.46
2022-09-27T15:57:45.947Z,59.34
2022-09-27T16:00:16.409Z,60.33
2022-09-27T16:02:42.874Z,60.43
2022-09-27T16:05:09.381Z,60.21
2022-09-27T16:07:36.309Z,59.88
2022-09-27T16:10:30.680Z,60.17
2022-09-27T16:12:57.337Z,59.86
2022-09-27T16:15:24.030Z,59.91
2022-09-27T16:17:50.803Z,60.38
2022-09-27T16:20:24.925Z,59.52
2022-09-27T16:22:53.889Z,59.46
2022-09-27T16:25:21.697Z,58.10
2022-09-27T16:27:49.160Z,59.15
2022-09-27T16:30:16.337Z,59.79
2022-09-27T16:32:44.208Z,59.64
2022-09-27T16:35:11.521Z,62.13
2022-09-27T16:37:38.206Z,62.15
2022-09-27T16:40:06.378Z,64.21
2022-09-27T16:42:32.922Z,63.83
2022-09-27T16:45:00.517Z,63.10
2022-09-27T16:47:28.216Z,62.87
2022-09-27T16:50:13.687Z,63.48
2022-09-27T16:52:41.544Z,64.03
2022-09-27T16:55:08.748Z,63.44
2022-09-27T16:57:36.038Z,63.32
2022-09-27T17:00:04.541Z,63.02
2022-09-27T17:02:32.553Z,63.50
2022-09-27T17:04:58.990Z,63.28
2022-09-27T17:07:25.540Z,63.85
2022-09-27T17:09:52.052Z,63.74
2022-09-27T17:12:18.546Z,63.10
2022-09-27T17:14:45.067Z,63.59
2022-09-27T17:17:11.529Z,63.81
2022-09-27T17:19:39.177Z,64.06
2022-09-27T17:22:07.363Z,62.68
2022-09-27T17:24:34.864Z,61.41
2022-09-27T17:27:02.242Z,61.34
2022-09-27T17:29:29.034Z,62.37
2022-09-27T17:31:55.621Z,61.35
2022-09-27T17:34:22.301Z,61.96
2022-09-27T17:36:50.270Z,62.60
2022-09-27T17:39:21.126Z,61.98
2022-09-27T17:41:51.083Z,63.36
2022-09-27T17:44:18.675Z,63.91
2022-09-27T17:46:46.461Z,63.08
2022-09-27T17:49:32.578Z,62.60
2022-09-27T17:51:59.306Z,61.62
2022-09-27T17:54:28.121Z,60.69
2022-09-27T17:56:56.338Z,63.62
2022-09-27T17:59:23.032Z,63.41
2022-09-27T18:01:49.997Z,63.43
2022-09-27T18:04:18.145Z,63.40
2022-09-27T18:06:47.158Z,63.03
2022-09-27T18:09:16.590Z,62.65
2022-09-27T18:11:44.209Z,63.31
2022-09-27T18:14:10.828Z,61.85
2022-09-27T18:16:42.918Z,61.58
2022-09-27T18:19:16.786Z,60.98
2022-09-27T18:21:44.056Z,62.42
2022-09-27T18:24:11.702Z,63.11
2022-09-27T18:26:39.708Z,62.92
2022-09-27T18:29:10.021Z,64.16
2022-09-27T18:31:36.688Z,64.21
2022-09-27T18:34:06.464Z,63.46
2022-09-27T18:36:33.138Z,63.28
2022-09-27T18:39:01.954Z,63.54
2022-09-27T18:41:30.874Z,62.82
2022-09-27T18:44:00.847Z,62.40
2022-09-27T18:46:37.067Z,62.24
2022-09-27T18:49:05.694Z,62.81
2022-09-27T18:51:33.145Z,62.31
2022-09-27T18:54:01.441Z,62.81
2022-09-27T18:56:28.777Z,61.93
2022-09-27T18:58:55.874Z,61.17
2022-09-27T19:01:23.598Z,61.26
2022-09-27T19:03:50.365Z,61.18
2022-09-27T19:06:26.213Z,60.63
2022-09-27T19:08:54.689Z,59.82
2022-09-27T19:11:22.406Z,60.22
2022-09-27T19:13:54.565Z,59.89
2022-09-27T19:16:22.300Z,60.50
2022-09-27T19:18:49.119Z,59.42
2022-09-27T19:21:21.317Z,58.92
2022-09-27T19:23:49.798Z,59.75
2022-09-27T19:26:18.653Z,59.05
2022-09-27T19:28:46.365Z,59.50
2022-09-27T19:31:20.994Z,60.71
2022-09-27T19:33:47.739Z,61.44
2022-09-27T19:36:16.552Z,60.13
2022-09-27T19:38:51.892Z,60.48
2022-09-27T19:41:18.790Z,60.10
2022-09-27T19:43:50.812Z,61.37
2022-09-27T19:46:18.371Z,61.18
2022-09-27T19:48:46.310Z,60.74
2022-09-27T19:51:16.470Z,61.59
2022-09-27T19:53:42.996Z,61.23
2022-09-27T19:56:10.601Z,60.89
2022-09-27T19:58:38.456Z,61.24
2022-09-27T20:01:12.888Z,64.05
2022-09-27T20:03:41.759Z,63.07
2022-09-27T20:06:10.958Z,63.16
2022-09-27T20:08:37.772Z,62.78
2022-09-27T20:11:10.068Z,61.83
2022-09-27T20:13:38.120Z,61.70
2022-09-27T20:16:22.066Z,63.37
2022-09-27T20:18:59.345Z,63.50
2022-09-27T20:21:27.749Z,62.70
2022-09-27T20:23:55.913Z,63.01
2022-09-27T20:26:23.851Z,63.04
2022-09-27T20:28:51.999Z,62.56
2022-09-27T20:31:20.825Z,62.44
2022-09-27T20:33:50.831Z,64.32
2022-09-27T20:36:19.522Z,64.38
2022-09-27T20:38:48.354Z,64.88
2022-09-27T20:41:19.524Z,63.95
2022-09-27T20:43:47.192Z,64.43
2022-09-27T20:46:16.206Z,65.25
2022-09-27T20:48:43.626Z,65.30
2022-09-27T20:51:13.749Z,65.23
2022-09-27T20:53:46.664Z,65.00
2022-09-27T20:56:21.391Z,64.44
2022-09-27T20:58:49.746Z,64.48
2022-09-27T21:01:18.807Z,64.98
2022-09-27T21:03:46.006Z,64.67
2022-09-27T21:06:13.624Z,65.45
2022-09-27T21:08:40.975Z,65.67
2022-09-27T21:11:08.831Z,65.83
2022-09-27T21:13:35.766Z,67.76
2022-09-27T21:16:03.823Z,67.74
2022-09-27T21:18:30.841Z,68.34
2022-09-27T21:21:03.591Z,70.33
2022-09-27T21:23:30.814Z,70.25
2022-09-27T21:26:03.413Z,69.87
2022-09-27T21:28:47.563Z,72.27
2022-09-27T21:31:23.226Z,74.00
2022-09-27T21:33:55.205Z,73.83
2022-09-27T21:36:23.359Z,73.39
2022-09-27T21:38:50.290Z,74.38
2022-09-27T21:41:16.982Z,75.33
2022-09-27T21:43:45.236Z,74.96
2022-09-27T21:46:19.561Z,75.08
2022-09-27T21:48:48.259Z,77.30
2022-09-27T21:51:20.063Z,79.28
2022-09-27T21:53:51.928Z,79.67
2022-09-27T21:56:19.479Z,79.28
2022-09-27T21:58:46.099Z,79.23
2022-09-27T22:01:14.770Z,77.63
2022-09-27T22:03:43.457Z,77.55
2022-09-27T22:06:16.137Z,77.88
2022-09-27T22:08:43.498Z,77.06
2022-09-27T22:11:13.512Z,76.52
2022-09-27T22:13:40.348Z,77.28
2022-09-27T22:16:09.130Z,77.04
2022-09-27T22:18:37.374Z,77.29
2022-09-27T22:21:04.891Z,77.51
2022-09-27T22:23:31.740Z,77.75
2022-09-27T22:25:58.806Z,78.49
2022-09-27T22:28:25.835Z,78.51
2022-09-27T22:30:53.030Z,78.04
2022-09-27T22:33:19.756Z,78.31
2022-09-27T22:35:47.163Z,77.93
2022-09-27T22:38:14.345Z,79.34
2022-09-27T22:40:41.452Z,79.18
2022-09-27T22:43:08.478Z,78.49
2022-09-27T22:45:34.922Z,80.25
2022-09-27T22:48:01.888Z,81.54
2022-09-27T22:50:28.434Z,81.61
2022-09-27T22:52:55.407Z,80.65
2022-09-27T22:55:21.899Z,80.97
2022-09-27T22:57:48.684Z,82.00
2022-09-27T23:00:15.297Z,82.21
2022-09-27T23:02:41.966Z,80.70
2022-09-27T23:05:09.006Z,81.60
2022-09-27T23:07:35.493Z,81.21
2022-09-27T23:10:01.986Z,80.74
2022-09-27T23:12:29.110Z,80.07
2022-09-27T23:14:55.858Z,80.05
2022-09-27T23:17:22.339Z,79.33
2022-09-27T23:19:48.797Z,78.45
2022-09-27T23:22:15.293Z,79.52
2022-09-27T23:24:41.838Z,78.26
2022-09-27T23:27:41.840Z,78.06
2022-09-27T23:30:09.988Z,78.77
2022-09-27T23:32:36.556Z,77.75
2022-09-27T23:35:03.915Z,77.16
2022-09-27T23:37:30.448Z,76.76
2022-09-27T23:39:57.363Z,75.54
2022-09-27T23:42:23.902Z,76.03
2022-09-27T23:44:53.409Z,75.78
2022-09-27T23:47:19.949Z,74.83
2022-09-27T23:49:46.871Z,74.51
2022-09-27T23:52:13.725Z,73.82
2022-09-27T23:54:40.473Z,74.16
2022-09-27T23:57:07.596Z,73.89
2022-09-27T23:59:34.280Z,75.45
